Seana C — WDJ3319 — position and weather

sailwx.info

Track history (hours):
 
Tides and Currents Weather Stations Pressure Air Temp Water Temp Dewpoint Dewpoint Depression Visibility Wind Speed Wind Dir Waves Ship Positions

Seana C

Owner: Curtin Maritime Corp, long beach, CA. More information available from US FCC via Universal Licensing System and Coast Guard Vessel Documentation Center.

Last reported at 2017-Dec-11 16:57 UTC. Time now 2017-Dec-13 13:18 UTC.
Position N 35°13' W 121°04'.

Length 21 m; draft 3 m.

Type: Tug. MMSI: 367766860.

Date/timePositionNaut miles runAvg speedWind from/ knotsBaromVisibWave heightAir tempDewpointWater temp
2017-Dec-11 16:57N 35°13' W 121°04'3 6.1
2017-Dec-11 16:30N 35°15' W 121°06'3 5.9
2017-Dec-11 16:01N 35°18' W 121°09'45 5.3
2017-Dec-11 07:26N 35°55' W 121°41'2 5.0
2017-Dec-11 06:59N 35°56' W 121°43'2 4.8
2017-Dec-11 06:29N 35°58' W 121°45'2 4.8
2017-Dec-11 06:01N 36°00' W 121°46'3 5.0
2017-Dec-11 05:30N 36°02' W 121°48'3 5.0
2017-Dec-11 05:00N 36°04' W 121°50'3 5.3
2017-Dec-11 04:30N 36°06' W 121°52'3 5.5
2017-Dec-11 04:01N 36°08' W 121°54'3 5.6
2017-Dec-11 03:31N 36°11' W 121°56'3 5.2
2017-Dec-11 03:00N 36°13' W 121°58'3 5.4
2017-Dec-11 02:31N 36°15' W 121°60'3 5.5
2017-Dec-11 02:00N 36°18' W 122°01'3 5.8
2017-Dec-11 01:31N 36°20' W 122°03'3 5.5
2017-Dec-11 01:01N 36°22' W 122°05'3 5.9
2017-Dec-11 00:30N 36°25' W 122°06'3 5.9
2017-Dec-11 00:00N 36°28' W 122°08'3 5.7
2017-Dec-10 23:31N 36°30' W 122°10'3 5.5
2017-Dec-10 23:01N 36°33' W 122°11'3 5.5
2017-Dec-10 22:31N 36°35' W 122°13'3 5.4
2017-Dec-10 22:01N 36°37' W 122°15'3 5.2
2017-Dec-10 21:31N 36°40' W 122°16'3 5.2
2017-Dec-10 21:00N 36°42' W 122°18'3 5.2
2017-Dec-10 20:31N 36°44' W 122°19'3 5.2
2017-Dec-10 20:00N 36°46' W 122°21'3 5.2
2017-Dec-10 19:30N 36°49' W 122°22'2 4.8
2017-Dec-10 19:00N 36°51' W 122°24'2 4.5
2017-Dec-10 18:29N 36°53' W 122°25'2 4.7
2017-Dec-10 18:01N 36°55' W 122°27'3 4.6
2017-Dec-10 17:24N 36°57' W 122°29'6 4.9
2017-Dec-10 16:11N 37°02' W 122°32'1 5.0
2017-Dec-10 15:58N 37°03' W 122°33'3 5.5
2017-Dec-10 15:29N 37°06' W 122°35'3 5.5
2017-Dec-10 14:58N 37°08' W 122°36'5 5.2
2017-Dec-10 14:00N 37°12' W 122°40'3 5.1
2017-Dec-10 13:21N 37°15' W 122°42'2 4.8
2017-Dec-10 13:01N 37°17' W 122°43'3 4.6
2017-Dec-10 12:15N 37°20' W 122°44'1 5.1
2017-Dec-10 11:59N 37°22' W 122°44'3 5.1
2017-Dec-10 11:30N 37°24' W 122°44'2 5.2
2017-Dec-10 11:01N 37°27' W 122°44'3 5.2
2017-Dec-10 10:30N 37°29' W 122°44'3 5.3
2017-Dec-10 10:01N 37°32' W 122°44'3 5.2
2017-Dec-10 09:31N 37°34' W 122°44'8 5.0
2017-Dec-10 07:55N 37°42' W 122°41'2 5.6
2017-Dec-10 07:29N 37°44' W 122°39'2 5.1
2017-Dec-10 07:01N 37°46' W 122°37'3 5.5
2017-Dec-10 06:31N 37°47' W 122°34'3 5.9
2017-Dec-10 06:00N 37°48' W 122°31'3 6.3
2017-Dec-10 05:30N 37°50' W 122°27'3 5.3
2017-Dec-10 05:01N 37°51' W 122°24'3 5.8
2017-Dec-10 04:31N 37°54' W 122°26'3 6.0
2017-Dec-10 03:59N 37°57' W 122°27'3 5.5
2017-Dec-10 03:30N 37°59' W 122°25'3 5.5
2017-Dec-10 03:00N 38°01' W 122°23'3 5.4
2017-Dec-10 02:29N 38°03' W 122°20'3 5.0
2017-Dec-10 01:57N 38°03' W 122°17'2 0.7
2017-Dec-09 23:11N 38°05' W 122°15'2 8.9
2017-Dec-09 22:59N 38°03' W 122°16'510.0
2017-Dec-09 22:30N 38°02' W 122°22'510.3
2017-Dec-09 21:59N 37°57' W 122°26'3 6.4
2017-Dec-09 21:28N 37°54' W 122°23'0 0.1
2017-Dec-09 20:55N 37°54' W 122°23'0 0.1
2017-Dec-09 20:28N 37°54' W 122°23'2 5.0
2017-Dec-09 20:00N 37°56' W 122°26'3 6.0
2017-Dec-09 19:29N 37°59' W 122°25'3 6.8
2017-Dec-09 19:00N 38°01' W 122°22'4 7.4
2017-Dec-09 18:30N 38°03' W 122°18'  
2017-Dec-03 21:58N 38°07' W 122°17'1 0.7
2017-Dec-03 20:47N 38°07' W 122°18'1 4.0
2017-Dec-03 20:31N 38°07' W 122°17'1 1.6
2017-Dec-03 20:00N 38°07' W 122°17'  
Track history (hours):
 
Tides and Currents Weather Stations Pressure Air Temp Water Temp Dewpoint Dewpoint Depression Visibility Wind Speed Wind Dir Waves Ship Positions

Seana C

Owner: Curtin Maritime Corp, long beach, CA. More information available from US FCC via Universal Licensing System and Coast Guard Vessel Documentation Center.

Last reported at 2017-Dec-11 16:57 UTC. Time now 2017-Dec-13 13:18 UTC.
Position N 35°13' W 121°04'.

Length 21 m; draft 3 m.

Type: Tug. MMSI: 367766860.

Date/timePositionNaut miles runAvg speedWind from/ knotsBaromVisibWave heightAir tempDewpointWater temp
2017-Dec-11 16:57N 35°13' W 121°04'3 6.1
2017-Dec-11 16:30N 35°15' W 121°06'3 5.9
2017-Dec-11 16:01N 35°18' W 121°09'45 5.3
2017-Dec-11 07:26N 35°55' W 121°41'2 5.0
2017-Dec-11 06:59N 35°56' W 121°43'2 4.8
2017-Dec-11 06:29N 35°58' W 121°45'2 4.8
2017-Dec-11 06:01N 36°00' W 121°46'3 5.0
2017-Dec-11 05:30N 36°02' W 121°48'3 5.0
2017-Dec-11 05:00N 36°04' W 121°50'3 5.3
2017-Dec-11 04:30N 36°06' W 121°52'3 5.5
2017-Dec-11 04:01N 36°08' W 121°54'3 5.6
2017-Dec-11 03:31N 36°11' W 121°56'3 5.2
2017-Dec-11 03:00N 36°13' W 121°58'3 5.4
2017-Dec-11 02:31N 36°15' W 121°60'3 5.5
2017-Dec-11 02:00N 36°18' W 122°01'3 5.8
2017-Dec-11 01:31N 36°20' W 122°03'3 5.5
2017-Dec-11 01:01N 36°22' W 122°05'3 5.9
2017-Dec-11 00:30N 36°25' W 122°06'3 5.9
2017-Dec-11 00:00N 36°28' W 122°08'3 5.7
2017-Dec-10 23:31N 36°30' W 122°10'3 5.5
2017-Dec-10 23:01N 36°33' W 122°11'3 5.5
2017-Dec-10 22:31N 36°35' W 122°13'3 5.4
2017-Dec-10 22:01N 36°37' W 122°15'3 5.2
2017-Dec-10 21:31N 36°40' W 122°16'3 5.2
2017-Dec-10 21:00N 36°42' W 122°18'3 5.2
2017-Dec-10 20:31N 36°44' W 122°19'3 5.2
2017-Dec-10 20:00N 36°46' W 122°21'3 5.2
2017-Dec-10 19:30N 36°49' W 122°22'2 4.8
2017-Dec-10 19:00N 36°51' W 122°24'2 4.5
2017-Dec-10 18:29N 36°53' W 122°25'2 4.7
2017-Dec-10 18:01N 36°55' W 122°27'3 4.6
2017-Dec-10 17:24N 36°57' W 122°29'6 4.9
2017-Dec-10 16:11N 37°02' W 122°32'1 5.0
2017-Dec-10 15:58N 37°03' W 122°33'3 5.5
2017-Dec-10 15:29N 37°06' W 122°35'3 5.5
2017-Dec-10 14:58N 37°08' W 122°36'5 5.2
2017-Dec-10 14:00N 37°12' W 122°40'3 5.1
2017-Dec-10 13:21N 37°15' W 122°42'2 4.8
2017-Dec-10 13:01N 37°17' W 122°43'3 4.6
2017-Dec-10 12:15N 37°20' W 122°44'1 5.1
2017-Dec-10 11:59N 37°22' W 122°44'3 5.1
2017-Dec-10 11:30N 37°24' W 122°44'2 5.2
2017-Dec-10 11:01N 37°27' W 122°44'3 5.2
2017-Dec-10 10:30N 37°29' W 122°44'3 5.3
2017-Dec-10 10:01N 37°32' W 122°44'3 5.2
2017-Dec-10 09:31N 37°34' W 122°44'8 5.0
2017-Dec-10 07:55N 37°42' W 122°41'2 5.6
2017-Dec-10 07:29N 37°44' W 122°39'2 5.1
2017-Dec-10 07:01N 37°46' W 122°37'3 5.5
2017-Dec-10 06:31N 37°47' W 122°34'3 5.9
2017-Dec-10 06:00N 37°48' W 122°31'3 6.3
2017-Dec-10 05:30N 37°50' W 122°27'3 5.3
2017-Dec-10 05:01N 37°51' W 122°24'3 5.8
2017-Dec-10 04:31N 37°54' W 122°26'3 6.0
2017-Dec-10 03:59N 37°57' W 122°27'3 5.5
2017-Dec-10 03:30N 37°59' W 122°25'3 5.5
2017-Dec-10 03:00N 38°01' W 122°23'3 5.4
2017-Dec-10 02:29N 38°03' W 122°20'3 5.0
2017-Dec-10 01:57N 38°03' W 122°17'2 0.7
2017-Dec-09 23:11N 38°05' W 122°15'2 8.9
2017-Dec-09 22:59N 38°03' W 122°16'510.0
2017-Dec-09 22:30N 38°02' W 122°22'510.3
2017-Dec-09 21:59N 37°57' W 122°26'3 6.4
2017-Dec-09 21:28N 37°54' W 122°23'0 0.1
2017-Dec-09 20:55N 37°54' W 122°23'0 0.1
2017-Dec-09 20:28N 37°54' W 122°23'2 5.0
2017-Dec-09 20:00N 37°56' W 122°26'3 6.0
2017-Dec-09 19:29N 37°59' W 122°25'3 6.8
2017-Dec-09 19:00N 38°01' W 122°22'4 7.4
2017-Dec-09 18:30N 38°03' W 122°18'  
2017-Dec-03 21:58N 38°07' W 122°17'1 0.7
2017-Dec-03 20:47N 38°07' W 122°18'1 4.0
2017-Dec-03 20:31N 38°07' W 122°17'1 1.6
2017-Dec-03 20:00N 38°07' W 122°17'  

Dump ship's entire track history